Time;durP1;ratioP1;P1;durP2;ratioP2;P2;SDS_P1;SDS_P2;PMS_P1;PMS_P2;Temp;Humidity;BMP_temperature;BMP_pressure;BME280_temperature;BME280_humidity;BME280_pressure;Samples;Min_cycle;Max_cycle;Signal;HPM_P1;HPM_P2
2021/03/06 00:00:19;;;;;;;11.20;7.63;;;-3.50;99.90;;;-143.91;100.00;62816.50;4981509;28;100922;-62
2021/03/06 00:02:45;;;;;;;13.77;7.87;;;-3.60;99.90;;;-143.91;100.00;62816.50;4982065;27;101966;-63
2021/03/06 00:05:13;;;;;;;10.07;6.87;;;-3.70;99.90;;;-143.91;100.00;62816.50;4982313;28;101362;-63
2021/03/06 00:07:40;;;;;;;13.23;8.33;;;-3.60;99.90;;;-143.91;100.00;62816.50;4982776;28;100252;-65
2021/03/06 00:10:11;;;;;;;12.23;8.77;;;-3.70;99.90;;;-143.91;100.00;62816.50;4995010;27;100151;-62
2021/03/06 00:12:37;;;;;;;11.97;8.47;;;-3.70;99.90;;;-143.91;100.00;62816.50;5002205;27;100198;-63
2021/03/06 00:15:05;;;;;;;10.73;7.80;;;-3.80;99.90;;;-143.91;100.00;62816.50;5002216;27;101350;-64
2021/03/06 00:17:33;;;;;;;13.27;8.57;;;-3.10;99.90;;;-143.91;100.00;62816.50;5002921;27;100122;-63
2021/03/06 00:19:59;;;;;;;10.70;7.83;;;-3.80;99.90;;;-143.91;100.00;62816.50;5002954;27;100363;-63
2021/03/06 00:22:26;;;;;;;11.27;7.83;;;-4.00;99.90;;;-143.91;100.00;62816.50;5002111;27;101296;-64
2021/03/06 00:24:52;;;;;;;12.70;8.13;;;-3.80;99.90;;;-143.91;100.00;62816.50;4999056;27;100749;-63
2021/03/06 00:27:19;;;;;;;11.57;8.37;;;-3.80;99.90;;;-143.91;100.00;62816.50;4995987;27;100124;-63
2021/03/06 00:29:45;;;;;;;12.47;8.60;;;-3.70;99.90;;;-143.91;100.00;62816.50;5003662;27;100105;-64
2021/03/06 00:32:11;;;;;;;12.90;7.97;;;-3.90;99.90;;;-143.91;100.00;62816.50;5003799;27;101161;-62
2021/03/06 00:34:39;;;;;;;9.87;7.60;;;-4.00;99.90;;;-143.91;100.00;62816.50;5002417;27;101389;-62
2021/03/06 00:37:05;;;;;;;12.60;8.20;;;-2.90;99.90;;;-143.91;100.00;62816.50;4982120;27;100205;-63
2021/03/06 00:39:32;;;;;;;10.93;7.70;;;-4.00;99.90;;;-143.91;100.00;62816.50;4983118;27;100094;-65
2021/03/06 00:41:58;;;;;;;9.70;6.83;;;-3.90;99.90;;;-143.91;100.00;62816.50;4981637;27;101720;-66
2021/03/06 00:44:24;;;;;;;12.37;7.93;;;-4.10;99.90;;;-143.91;100.00;62816.50;4981019;27;102252;-64
2021/03/06 00:46:51;;;;;;;11.07;6.73;;;-4.10;99.90;;;-143.91;100.00;62816.50;4982170;28;100386;-65
2021/03/06 00:49:19;;;;;;;12.00;7.93;;;-4.40;99.90;;;-143.91;100.00;62816.50;4982503;27;100481;-61
2021/03/06 00:51:46;;;;;;;11.17;7.73;;;-4.30;99.90;;;-143.91;100.00;62816.50;4981584;27;100791;-65
2021/03/06 00:54:18;;;;;;;10.93;8.17;;;-2.60;99.90;;;-143.91;100.00;62816.50;4982274;28;100490;-64
2021/03/06 00:56:45;;;;;;;13.03;7.87;;;-4.40;99.90;;;-143.91;100.00;62816.50;4980147;27;100424;-64
2021/03/06 00:59:13;;;;;;;11.30;7.73;;;-4.20;99.90;;;-143.91;100.00;62816.50;4979965;28;100217;-64
2021/03/06 01:01:40;;;;;;;10.90;7.87;;;-4.40;99.90;;;-143.91;100.00;62816.50;4962949;27;103570;-65
2021/03/06 01:04:07;;;;;;;11.33;7.13;;;-4.40;99.90;;;-143.91;100.00;62816.50;4985895;27;100363;-63
2021/03/06 01:06:33;;;;;;;12.13;7.80;;;-3.50;99.90;;;-143.91;100.00;62816.50;4998746;27;100435;-64
2021/03/06 01:09:01;;;;;;;11.97;8.23;;;-4.30;99.90;;;-143.91;100.00;62816.50;5006085;27;100580;-64
2021/03/06 01:11:27;;;;;;;12.77;8.37;;;-4.30;99.90;;;-143.91;100.00;62816.50;5004999;27;101204;-64
2021/03/06 01:13:54;;;;;;;11.17;7.70;;;-4.50;99.90;;;-143.91;100.00;62816.50;5005172;27;101406;-65
2021/03/06 01:16:21;;;;;;;10.90;7.97;;;-4.40;99.90;;;-143.91;100.00;62816.50;5004308;27;100270;-64
2021/03/06 01:18:47;;;;;;;9.97;7.70;;;-3.90;99.90;;;-143.91;100.00;62816.50;5020558;27;100442;-63
2021/03/06 01:21:14;;;;;;;11.27;7.80;;;-4.50;99.90;;;-143.91;100.00;62816.50;5005058;27;101304;-64
2021/03/06 01:23:40;;;;;;;10.40;7.13;;;-4.40;99.90;;;-143.91;100.00;62816.50;5005317;27;100306;-63
2021/03/06 01:26:08;;;;;;;12.53;7.67;;;-4.50;99.90;;;-143.91;100.00;62816.50;4997044;27;100226;-64
2021/03/06 01:28:35;;;;;;;12.63;7.90;;;-4.50;99.90;;;-143.91;100.00;62816.50;4985271;27;100114;-63
2021/03/06 01:31:01;;;;;;;12.30;7.60;;;-4.60;99.90;;;-143.91;100.00;62816.50;4986207;27;101525;-64
2021/03/06 01:33:27;;;;;;;11.97;8.03;;;-4.60;99.90;;;-143.91;100.00;62816.50;5006006;27;100468;-63
2021/03/06 01:35:54;;;;;;;13.63;7.43;;;-4.60;99.90;;;-143.91;100.00;62816.50;5005451;27;100308;-63
2021/03/06 01:38:20;;;;;;;15.27;8.93;;;-4.60;99.90;;;-143.91;100.00;62816.50;5005068;27;100264;-64
2021/03/06 01:40:47;;;;;;;11.20;7.50;;;-4.80;99.90;;;-143.91;100.00;62816.50;5002010;27;101572;-64
2021/03/06 01:43:17;;;;;;;12.90;7.90;;;-4.70;99.90;;;-143.91;100.00;62816.50;5005491;27;100560;-64
2021/03/06 01:45:44;;;;;;;10.87;7.43;;;-4.50;99.90;;;-143.91;100.00;62816.50;5004912;27;100312;-64
2021/03/06 01:48:11;;;;;;;11.20;8.10;;;-4.70;99.90;;;-143.91;100.00;62816.50;5004845;27;100047;-65
2021/03/06 01:50:41;;;;;;;13.53;7.77;;;-4.60;99.90;;;-143.91;100.00;62816.50;5004309;27;101651;-64
2021/03/06 01:53:09;;;;;;;12.50;7.07;;;-4.40;99.90;;;-143.91;100.00;62816.50;5005286;27;101919;-65
2021/03/06 01:55:39;;;;;;;12.63;7.90;;;-4.70;99.90;;;-143.91;100.00;62816.50;5004557;27;100261;-64
2021/03/06 01:58:06;;;;;;;13.00;7.50;;;-4.60;99.90;;;-143.91;100.00;62816.50;5005479;27;100550;-64
2021/03/06 02:00:34;;;;;;;11.83;7.07;;;-4.70;99.90;;;-143.91;100.00;62816.50;4989980;27;101391;-64
2021/03/06 02:03:01;;;;;;;9.63;6.43;;;-4.90;99.90;;;-143.91;100.00;62816.50;4986659;27;100691;-64
2021/03/06 02:05:28;;;;;;;10.97;6.63;;;-4.70;99.90;;;-143.91;100.00;62816.50;5004229;27;100109;-64
2021/03/06 02:07:55;;;;;;;9.10;6.73;;;-4.90;99.90;;;-143.91;100.00;62816.50;5005026;27;100235;-64
2021/03/06 02:10:28;;;;;;;11.20;6.73;;;-5.10;99.90;;;-143.91;100.00;62816.50;4985641;27;101080;-64
2021/03/06 02:13:24;;;;;;;10.70;6.77;;;-4.90;99.90;;;-143.91;100.00;62816.50;4984450;28;101423;-64
2021/03/06 02:16:18;;;;;;;7.17;5.33;;;-5.00;99.90;;;-143.91;100.00;62816.50;4996561;27;100525;-64
2021/03/06 02:18:50;;;;;;;8.27;6.50;;;-4.90;99.90;;;-143.91;100.00;62816.50;4989020;27;100517;-65
2021/03/06 02:21:36;;;;;;;10.13;6.87;;;-4.80;99.90;;;-143.91;100.00;62816.50;5002235;27;101188;-64
2021/03/06 02:24:46;;;;;;;10.67;6.27;;;-4.90;99.90;;;-143.91;100.00;62816.50;5004550;27;100489;-65
2021/03/06 02:27:22;;;;;;;8.47;5.70;;;-4.30;99.90;;;-143.91;100.00;62816.50;4969160;27;100321;-64
2021/03/06 02:29:55;;;;;;;8.87;6.13;;;-4.90;99.90;;;-143.91;100.00;62816.50;5004018;27;100141;-65
2021/03/06 02:32:25;;;;;;;11.67;6.30;;;-4.80;99.90;;;-143.91;100.00;62816.50;5003459;27;102012;-65
2021/03/06 02:35:08;;;;;;;7.47;5.70;;;-4.90;99.90;;;-143.91;100.00;62816.50;5002369;27;100564;-65
2021/03/06 02:37:40;;;;;;;9.40;6.23;;;-4.90;99.90;;;-143.91;100.00;62816.50;5001302;27;100138;-65
2021/03/06 02:40:09;;;;;;;5.60;5.03;;;-4.80;99.90;;;-143.91;100.00;62816.50;5002899;27;100249;-65
2021/03/06 02:42:37;;;;;;;9.70;6.07;;;-4.80;99.90;;;-143.91;100.00;62816.50;5004792;27;100067;-65
2021/03/06 02:45:07;;;;;;;9.27;6.10;;;-4.80;99.90;;;-143.91;100.00;62816.50;5004293;27;100390;-65
2021/03/06 02:47:33;;;;;;;8.27;5.53;;;-4.80;99.90;;;-143.91;100.00;62816.50;5004072;27;100069;-65
2021/03/06 02:50:04;;;;;;;9.70;5.70;;;-4.90;99.90;;;-143.91;100.00;62816.50;5004456;27;100260;-64
2021/03/06 02:52:30;;;;;;;9.53;6.23;;;-4.90;99.90;;;-143.91;100.00;62816.50;5004288;27;100838;-65
2021/03/06 02:54:57;;;;;;;11.40;6.43;;;-3.80;99.90;;;-143.91;100.00;62816.50;5004293;27;100943;-65
2021/03/06 02:57:41;;;;;;;7.20;6.07;;;-4.90;99.90;;;-143.91;100.00;62816.50;5002656;27;100394;-65
2021/03/06 03:00:32;;;;;;;7.80;5.70;;;-4.90;99.90;;;-143.91;100.00;62816.50;5003615;27;100399;-65
2021/03/06 03:03:12;;;;;;;8.43;5.83;;;-4.80;99.90;;;-143.91;100.00;62816.50;5003962;27;101350;-65
2021/03/06 03:05:47;;;;;;;8.20;6.10;;;-5.00;99.90;;;-143.91;100.00;62816.50;5002852;27;101241;-64
2021/03/06 03:08:22;;;;;;;7.70;5.60;;;-4.90;99.90;;;-143.91;100.00;62816.50;5002306;27;100230;-65
2021/03/06 03:10:58;;;;;;;9.27;6.03;;;-5.00;99.90;;;-143.91;100.00;62816.50;5003066;27;100578;-65
2021/03/06 03:13:30;;;;;;;10.77;7.13;;;-3.80;99.90;;;-143.91;100.00;62816.50;5003687;27;101159;-65
2021/03/06 03:16:06;;;;;;;9.13;6.17;;;-3.80;99.90;;;-143.91;100.00;62816.50;5003838;27;100560;-65
2021/03/06 03:18:38;;;;;;;10.67;6.40;;;-4.90;99.90;;;-143.91;100.00;62816.50;5003990;27;100076;-65
2021/03/06 03:21:09;;;;;;;10.13;5.80;;;-4.90;99.90;;;-143.91;100.00;62816.50;4984572;27;102063;-65
2021/03/06 03:23:41;;;;;;;9.93;5.60;;;-3.90;99.90;;;-143.91;100.00;62816.50;4998216;27;101702;-64
2021/03/06 03:26:12;;;;;;;8.77;5.73;;;-5.00;99.90;;;-143.91;100.00;62816.50;4982400;27;101661;-64
2021/03/06 03:28:42;;;;;;;8.17;5.70;;;-5.10;99.90;;;-143.91;100.00;62816.50;4983237;28;100081;-65
2021/03/06 03:31:11;;;;;;;9.03;6.03;;;-5.10;99.90;;;-143.91;100.00;62816.50;4985031;27;100555;-65
2021/03/06 03:33:41;;;;;;;9.00;6.27;;;-5.00;99.90;;;-143.91;100.00;62816.50;4982725;28;101143;-65
2021/03/06 03:36:08;;;;;;;8.60;5.50;;;-5.20;99.90;;;-143.91;100.00;62816.50;4982307;27;101380;-64
2021/03/06 03:38:35;;;;;;;7.57;6.13;;;-5.20;99.90;;;-143.91;100.00;62816.50;4982998;28;100490;-65
2021/03/06 03:41:03;;;;;;;7.17;5.43;;;-5.20;99.90;;;-143.91;100.00;62816.50;4983542;27;100439;-65
2021/03/06 03:43:30;;;;;;;8.03;5.70;;;-5.30;99.90;;;-143.91;100.00;62816.50;4983226;28;101246;-65
2021/03/06 03:45:57;;;;;;;11.27;6.00;;;-5.20;99.90;;;-143.91;100.00;62816.50;4982960;27;100657;-65
2021/03/06 03:48:25;;;;;;;9.27;5.70;;;-5.30;99.90;;;-143.91;100.00;62816.50;4986652;27;100005;-64
2021/03/06 03:50:51;;;;;;;8.63;5.93;;;-5.30;99.90;;;-143.91;100.00;62816.50;5003652;27;100498;-65
2021/03/06 03:53:18;;;;;;;10.97;5.90;;;-5.30;99.90;;;-143.91;100.00;62816.50;4985093;27;100833;-64
2021/03/06 03:55:45;;;;;;;7.43;5.47;;;-5.30;99.90;;;-143.91;100.00;62816.50;4982827;27;102039;-64
2021/03/06 03:58:12;;;;;;;9.50;6.03;;;-5.30;99.90;;;-143.91;100.00;62816.50;4985086;28;100269;-64
2021/03/06 04:00:39;;;;;;;8.97;5.53;;;-5.50;99.90;;;-143.91;100.00;62816.50;4992424;27;100265;-64
2021/03/06 04:03:10;;;;;;;8.73;5.80;;;-5.40;99.90;;;-143.91;100.00;62816.50;4993999;27;101462;-64
2021/03/06 04:05:37;;;;;;;7.73;5.47;;;-5.30;99.90;;;-143.91;100.00;62816.50;4982812;27;100302;-64
2021/03/06 04:08:05;;;;;;;6.73;5.53;;;-5.40;99.90;;;-143.91;100.00;62816.50;4982977;27;100117;-64
2021/03/06 04:10:31;;;;;;;8.10;5.73;;;-5.30;99.90;;;-143.91;100.00;62816.50;4982098;28;100238;-64
2021/03/06 04:12:58;;;;;;;10.93;6.73;;;-5.30;99.90;;;-143.91;100.00;62816.50;4982017;27;101097;-64
2021/03/06 04:15:25;;;;;;;8.80;6.13;;;-5.30;99.90;;;-143.91;100.00;62816.50;4982574;28;101649;-63
2021/03/06 04:17:52;;;;;;;8.40;5.40;;;-5.30;99.90;;;-143.91;100.00;62816.50;4983070;27;100227;-64
2021/03/06 04:20:21;;;;;;;11.57;6.27;;;-5.40;99.90;;;-143.91;100.00;62816.50;4991838;27;100300;-63
2021/03/06 04:22:49;;;;;;;7.57;5.53;;;-5.40;99.90;;;-143.91;100.00;62816.50;5000404;27;103062;-64
2021/03/06 04:25:16;;;;;;;8.73;6.00;;;-5.40;99.90;;;-143.91;100.00;62816.50;5002871;27;100495;-63
2021/03/06 04:27:43;;;;;;;10.63;6.57;;;-5.30;99.90;;;-143.91;100.00;62816.50;5002898;27;100333;-65
2021/03/06 04:30:11;;;;;;;11.30;5.93;;;-5.30;99.90;;;-143.91;100.00;62816.50;4998461;27;100376;-64
2021/03/06 04:32:39;;;;;;;10.23;5.83;;;-5.40;99.90;;;-143.91;100.00;62816.50;4983528;27;101663;-65
2021/03/06 04:35:08;;;;;;;9.07;6.23;;;-5.40;99.90;;;-143.91;100.00;62816.50;4982879;28;100488;-64
2021/03/06 04:37:35;;;;;;;8.67;6.23;;;-5.40;99.90;;;-143.91;100.00;62816.50;4981933;28;100400;-63
2021/03/06 04:40:03;;;;;;;9.13;6.30;;;-5.50;99.90;;;-143.91;100.00;62816.50;4985907;27;100448;-63
2021/03/06 04:42:30;;;;;;;8.33;6.17;;;-4.40;99.90;;;-143.91;100.00;62816.50;5001837;27;101641;-63
2021/03/06 04:44:56;;;;;;;9.67;5.60;;;-5.50;99.90;;;-143.91;100.00;62816.50;4982185;27;101208;-64
2021/03/06 04:47:22;;;;;;;9.13;6.53;;;-5.50;99.90;;;-143.91;100.00;62816.50;4980751;27;100555;-64
2021/03/06 04:49:49;;;;;;;8.70;5.70;;;-5.50;99.90;;;-143.91;100.00;62816.50;5000972;27;100328;-64
2021/03/06 04:52:16;;;;;;;9.03;5.87;;;-5.50;99.90;;;-143.91;100.00;62816.50;4982673;28;100670;-64
2021/03/06 04:54:42;;;;;;;8.37;5.60;;;-5.50;99.90;;;-143.91;100.00;62816.50;4982541;27;100455;-63
2021/03/06 04:57:11;;;;;;;8.00;5.27;;;-5.40;99.90;;;-143.91;100.00;62816.50;4983280;27;100344;-63
2021/03/06 04:59:37;;;;;;;7.77;5.60;;;-5.50;99.90;;;-143.91;100.00;62816.50;4982325;28;100296;-63
2021/03/06 05:02:04;;;;;;;13.17;5.87;;;-5.50;99.90;;;-143.91;100.00;62816.50;4981270;28;101915;-64
2021/03/06 05:04:31;;;;;;;8.20;6.03;;;-5.00;99.90;;;-143.91;100.00;62816.50;4981980;27;100510;-63
2021/03/06 05:06:58;;;;;;;11.87;7.03;;;-5.60;99.90;;;-143.91;100.00;62816.50;4982490;27;100169;-64
2021/03/06 05:09:24;;;;;;;9.67;6.03;;;-5.50;99.90;;;-143.91;100.00;62816.50;4997538;27;100250;-63
2021/03/06 05:11:51;;;;;;;8.90;5.77;;;-5.60;99.90;;;-143.91;100.00;62816.50;4981345;27;100856;-63
2021/03/06 05:14:18;;;;;;;11.13;6.10;;;-5.60;99.90;;;-143.91;100.00;62816.50;4982105;28;100634;-63
2021/03/06 05:16:45;;;;;;;9.17;6.10;;;-4.90;99.90;;;-143.91;100.00;62816.50;4993891;27;100520;-64
2021/03/06 05:19:13;;;;;;;9.20;6.30;;;-5.60;99.90;;;-143.91;100.00;62816.50;5002861;27;99888;-63
2021/03/06 05:21:39;;;;;;;9.80;8.00;;;-5.60;99.90;;;-143.91;100.00;62816.50;5001936;27;100670;-64
2021/03/06 05:24:07;;;;;;;9.40;7.03;;;-5.50;99.90;;;-143.91;100.00;62816.50;5001983;27;100676;-63
2021/03/06 05:26:34;;;;;;;9.40;7.10;;;-5.50;99.90;;;-143.91;100.00;62816.50;5001536;27;100216;-63
2021/03/06 05:29:00;;;;;;;10.30;6.87;;;-5.70;99.90;;;-143.91;100.00;62816.50;5001941;27;100175;-63
2021/03/06 05:31:28;;;;;;;8.40;6.57;;;-5.70;99.90;;;-143.91;100.00;62816.50;5000426;27;100765;-63
2021/03/06 05:33:54;;;;;;;9.33;6.70;;;-5.60;99.90;;;-143.91;100.00;62816.50;5002487;27;100681;-63
2021/03/06 05:36:21;;;;;;;10.30;6.17;;;-5.70;99.90;;;-143.91;100.00;62816.50;4999944;27;100342;-63
2021/03/06 05:38:48;;;;;;;8.70;6.13;;;-5.60;99.90;;;-143.91;100.00;62816.50;5001466;27;100315;-63
2021/03/06 05:41:18;;;;;;;7.53;4.77;;;-5.80;99.90;;;-143.91;100.00;62816.50;5002320;27;101853;-63
2021/03/06 05:43:45;;;;;;;9.47;6.30;;;-5.80;99.90;;;-143.91;100.00;62816.50;4998326;27;101248;-63
2021/03/06 05:46:13;;;;;;;8.77;6.90;;;-5.80;99.90;;;-143.91;100.00;62816.50;4981192;27;100130;-62
2021/03/06 05:48:41;;;;;;;13.40;7.57;;;-5.80;99.90;;;-143.91;100.00;62816.50;4981650;27;100259;-62
2021/03/06 05:51:08;;;;;;;7.00;5.83;;;-4.90;99.90;;;-143.91;100.00;62816.50;4984099;28;101003;-64
2021/03/06 05:53:35;;;;;;;12.50;6.10;;;-5.70;99.90;;;-143.91;100.00;62816.50;4984281;28;101097;-63
2021/03/06 05:56:05;;;;;;;9.10;6.57;;;-5.80;99.90;;;-143.91;100.00;62816.50;4973144;27;100209;-63
2021/03/06 05:58:32;;;;;;;13.40;6.50;;;-5.40;99.90;;;-143.91;100.00;62816.50;4981188;27;100326;-64
2021/03/06 06:01:01;;;;;;;10.47;6.27;;;-5.80;99.90;;;-143.91;100.00;62816.50;4995435;27;100912;-63
2021/03/06 06:03:30;;;;;;;10.07;6.10;;;-5.60;99.90;;;-143.91;100.00;62816.50;5004682;27;101484;-63
2021/03/06 06:05:57;;;;;;;10.70;6.23;;;-5.70;99.90;;;-143.91;100.00;62816.50;5005284;27;100344;-63
2021/03/06 06:08:25;;;;;;;10.67;6.87;;;-5.70;99.90;;;-143.91;100.00;62816.50;5010318;27;100162;-62
2021/03/06 06:10:52;;;;;;;13.13;7.13;;;-5.50;99.90;;;-143.91;100.00;62816.50;5003610;27;100913;-63
2021/03/06 06:13:18;;;;;;;8.37;6.47;;;-5.40;99.90;;;-143.91;100.00;62816.50;4987982;27;100688;-64
2021/03/06 06:15:45;;;;;;;10.80;6.50;;;-5.10;99.90;;;-143.91;100.00;62816.50;4962751;28;100387;-63
2021/03/06 06:18:13;;;;;;;8.37;6.77;;;-5.00;99.90;;;-143.91;100.00;62816.50;4980004;27;100140;-63
2021/03/06 06:20:39;;;;;;;10.13;7.10;;;-4.80;99.90;;;-143.91;100.00;62816.50;4981946;27;101618;-63
2021/03/06 06:23:12;;;;;;;10.40;6.93;;;-4.50;99.90;;;-143.91;100.00;62816.50;4982220;27;100773;-63
2021/03/06 06:25:39;;;;;;;8.60;6.37;;;-4.40;99.90;;;-143.91;100.00;62816.50;4982108;27;100193;-62
2021/03/06 06:28:07;;;;;;;11.47;6.70;;;-4.10;99.90;;;-143.91;100.00;62816.50;4982544;28;100443;-62
2021/03/06 06:30:34;;;;;;;10.97;6.90;;;-3.90;99.90;;;-143.91;100.00;62816.50;4988987;27;100987;-63
2021/03/06 06:33:01;;;;;;;9.33;5.67;;;-3.60;99.90;;;-143.91;100.00;62816.50;5003393;27;100581;-63
2021/03/06 06:35:28;;;;;;;10.03;6.83;;;-3.00;99.90;;;-143.91;100.00;62816.50;4995360;27;100044;-62
2021/03/06 06:37:57;;;;;;;10.50;6.53;;;-2.50;99.90;;;-143.91;100.00;62816.50;4981660;28;100491;-63
2021/03/06 06:40:27;;;;;;;11.33;7.70;;;-2.90;99.90;;;-143.91;100.00;62816.50;4982612;27;100544;-63
2021/03/06 06:42:54;;;;;;;12.00;8.70;;;-2.60;99.90;;;-143.91;100.00;62816.50;4981716;28;100520;-63
2021/03/06 06:45:21;;;;;;;12.23;7.70;;;-2.40;99.90;;;-143.91;100.00;62816.50;4981855;27;100087;-63
2021/03/06 06:47:50;;;;;;;13.37;6.83;;;-1.40;99.90;;;-143.91;100.00;62816.50;4982037;28;100348;-63
2021/03/06 06:50:29;;;;;;;8.60;7.03;;;-2.10;99.90;;;-143.91;100.00;62816.50;4981191;27;101697;-62
2021/03/06 06:52:56;;;;;;;9.00;6.87;;;-2.00;99.90;;;-143.91;100.00;62816.50;5001271;27;100761;-63
2021/03/06 06:55:36;;;;;;;12.07;7.20;;;-1.60;99.90;;;-143.91;100.00;62816.50;5000018;27;100689;-63
2021/03/06 06:58:03;;;;;;;7.93;6.40;;;-1.30;99.90;;;-143.91;100.00;62816.50;5001993;27;100406;-62
2021/03/06 07:00:31;;;;;;;8.90;6.80;;;-0.70;99.90;;;-143.91;100.00;62816.50;4992632;27;101912;-62
2021/03/06 07:03:00;;;;;;;10.53;6.93;;;-0.80;99.90;;;-143.91;100.00;62816.50;4983482;27;100191;-63
2021/03/06 07:05:29;;;;;;;10.07;7.37;;;-0.40;99.90;;;-143.91;100.00;62816.50;4998768;27;100142;-62
2021/03/06 07:07:56;;;;;;;11.10;6.97;;;-0.10;99.90;;;-143.91;100.00;62816.50;5002031;27;100192;-62
2021/03/06 07:10:24;;;;;;;8.30;6.37;;;0.30;99.90;;;-143.91;100.00;62816.50;5000652;27;100632;-62
2021/03/06 07:13:00;;;;;;;7.40;6.20;;;0.50;99.90;;;-143.91;100.00;62816.50;5000633;27;100466;-61
2021/03/06 07:15:31;;;;;;;6.97;6.17;;;0.60;99.90;;;-143.91;100.00;62816.50;5001440;27;100097;-60
2021/03/06 07:18:00;;;;;;;9.73;6.13;;;1.10;99.90;;;-143.91;100.00;62816.50;5001251;27;100294;-61
2021/03/06 07:20:30;;;;;;;8.33;6.20;;;2.00;99.90;;;-143.91;100.00;62816.50;4999679;27;101794;-60
2021/03/06 07:22:58;;;;;;;7.47;5.80;;;1.60;99.90;;;-143.91;100.00;62816.50;5001704;27;100687;-61
2021/03/06 07:25:28;;;;;;;11.53;7.23;;;1.70;99.90;;;-143.91;100.00;62816.50;5001141;27;100449;-62
2021/03/06 07:27:54;;;;;;;8.67;7.27;;;2.00;99.90;;;-143.91;100.00;62816.50;4998682;27;100281;-63
2021/03/06 07:30:22;;;;;;;10.73;6.80;;;2.10;99.90;;;-143.91;100.00;62816.50;4999386;27;101511;-62
2021/03/06 07:32:49;;;;;;;6.57;5.33;;;2.30;99.90;;;-143.91;100.00;62816.50;4983533;27;100919;-62
2021/03/06 07:35:16;;;;;;;6.83;5.77;;;2.50;99.90;;;-143.91;100.00;62816.50;4980646;27;100632;-61
2021/03/06 07:37:44;;;;;;;9.97;6.03;;;2.70;99.90;;;-143.91;100.00;62816.50;4981109;28;100427;-62
2021/03/06 07:40:13;;;;;;;7.13;5.47;;;2.80;99.90;;;-143.91;100.00;62816.50;4983394;27;101552;-63
2021/03/06 07:42:44;;;;;;;6.23;5.53;;;3.10;99.90;;;-143.91;100.00;62816.50;4990437;27;101092;-63
2021/03/06 07:45:16;;;;;;;7.90;4.87;;;4.10;99.90;;;-143.91;100.00;62816.50;5000164;27;100334;-62
2021/03/06 07:47:46;;;;;;;8.73;5.17;;;3.40;99.90;;;-143.91;100.00;62816.50;5000831;27;100272;-62
2021/03/06 07:50:20;;;;;;;7.83;5.77;;;3.60;99.90;;;-143.91;100.00;62816.50;4998578;27;100944;-63
2021/03/06 07:52:47;;;;;;;9.27;5.40;;;3.50;99.90;;;-143.91;100.00;62816.50;5000860;27;100385;-62
2021/03/06 07:55:15;;;;;;;9.27;5.37;;;3.80;99.90;;;-143.91;100.00;62816.50;5000011;27;100277;-62
2021/03/06 07:58:11;;;;;;;6.47;5.20;;;4.00;99.20;;;-143.91;100.00;62816.50;5000862;27;100238;-62
2021/03/06 08:00:44;;;;;;;6.57;5.00;;;4.00;96.90;;;-143.91;100.00;62816.50;4986533;27;101023;-63
2021/03/06 08:03:39;;;;;;;6.73;4.70;;;4.10;96.30;;;-143.91;100.00;62816.50;4980945;27;101129;-62
2021/03/06 08:06:18;;;;;;;7.77;4.47;;;4.20;94.60;;;-143.91;100.00;62816.50;4980436;28;100557;-62
2021/03/06 08:09:12;;;;;;;5.87;4.40;;;4.40;94.50;;;-143.91;100.00;62816.50;4980656;27;100184;-62
2021/03/06 08:11:46;;;;;;;5.83;4.23;;;4.50;94.00;;;-143.91;100.00;62816.50;4970961;27;101147;-62
2021/03/06 08:14:42;;;;;;;8.23;5.60;;;4.70;94.60;;;-143.91;100.00;62816.50;4966351;28;102717;-62
2021/03/06 08:17:31;;;;;;;13.53;6.50;;;4.80;92.50;;;-143.91;100.00;62816.50;4933506;28;100288;-62
2021/03/06 08:19:59;;;;;;;7.97;5.37;;;4.90;90.80;;;-143.91;100.00;62816.50;4978867;27;100427;-62
2021/03/06 08:22:25;;;;;;;6.50;4.77;;;4.90;91.00;;;-143.91;100.00;62816.50;4979771;27;100599;-62
2021/03/06 08:24:52;;;;;;;8.00;4.83;;;5.00;90.20;;;-143.91;100.00;62816.50;4978225;27;100188;-62
2021/03/06 08:27:23;;;;;;;5.57;4.50;;;4.90;89.60;;;-143.91;100.00;62816.50;4982809;27;100639;-62
2021/03/06 08:29:57;;;;;;;7.17;4.67;;;5.10;88.80;;;-143.91;100.00;62816.50;4998484;27;100460;-63
2021/03/06 08:32:40;;;;;;;8.67;4.73;;;5.10;86.90;;;-143.91;100.00;62816.50;4979723;28;102064;-62
2021/03/06 08:35:24;;;;;;;6.77;4.57;;;5.40;89.70;;;-143.91;100.00;62816.50;4961334;28;103365;-63
2021/03/06 08:37:51;;;;;;;9.63;4.73;;;5.50;88.20;;;-143.91;100.00;62816.50;4980000;27;100150;-62
2021/03/06 08:40:23;;;;;;;7.17;4.53;;;5.70;84.80;;;-143.91;100.00;62816.50;4980936;27;100429;-61
2021/03/06 08:42:52;;;;;;;7.13;4.10;;;5.80;83.50;;;-143.91;100.00;62816.50;4965347;28;101753;-63
2021/03/06 08:45:23;;;;;;;5.60;3.57;;;5.90;83.40;;;-143.91;100.00;62816.50;4979326;28;101405;-61
2021/03/06 08:47:54;;;;;;;5.93;5.03;;;6.20;82.40;;;-143.91;100.00;62816.50;4979486;28;100295;-62
2021/03/06 08:50:24;;;;;;;7.93;5.50;;;6.40;79.60;;;-143.91;100.00;62816.50;4980837;27;100272;-61
2021/03/06 08:52:59;;;;;;;8.53;4.60;;;6.60;79.50;;;-143.91;100.00;62816.50;4979574;28;101222;-62
2021/03/06 08:55:28;;;;;;;6.40;4.83;;;6.90;77.30;;;-143.91;100.00;62816.50;4983249;27;100137;-62
2021/03/06 08:57:54;;;;;;;5.33;4.10;;;7.10;76.60;;;-143.91;100.00;62816.50;4999781;27;100061;-62
2021/03/06 09:00:27;;;;;;;5.80;3.50;;;8.20;75.40;;;-143.91;100.00;62816.50;5014287;27;100206;-61
2021/03/06 09:02:54;;;;;;;5.80;4.03;;;7.20;72.50;;;-143.91;100.00;62816.50;5000109;27;101111;-62
2021/03/06 09:05:24;;;;;;;4.60;3.30;;;7.40;72.70;;;-143.91;100.00;62816.50;4999779;27;100187;-63
2021/03/06 09:07:52;;;;;;;5.03;3.60;;;7.40;71.50;;;-143.91;100.00;62816.50;4984799;27;100352;-63
2021/03/06 09:10:43;;;;;;;8.97;3.87;;;7.40;70.90;;;-143.91;100.00;62816.50;4979778;27;100290;-62
2021/03/06 09:13:15;;;;;;;6.67;3.57;;;7.70;70.10;;;-143.91;100.00;62816.50;4971673;27;100868;-62
2021/03/06 09:15:48;;;;;;;7.57;3.80;;;7.80;69.00;;;-143.91;100.00;62816.50;4999627;27;100183;-62
2021/03/06 09:18:18;;;;;;;6.93;4.20;;;7.70;68.20;;;-143.91;100.00;62816.50;4999728;27;100216;-61
2021/03/06 09:20:51;;;;;;;6.60;4.33;;;7.90;68.20;;;-143.91;100.00;62816.50;4998506;27;100198;-63
2021/03/06 09:23:31;;;;;;;8.37;4.37;;;8.20;69.10;;;-143.91;100.00;62816.50;4999607;27;100959;-63
2021/03/06 09:26:02;;;;;;;9.53;4.03;;;8.30;66.80;;;-143.91;100.00;62816.50;4995243;27;100384;-63
2021/03/06 09:28:31;;;;;;;4.10;3.63;;;8.20;67.00;;;-143.91;100.00;62816.50;4982486;28;100015;-61
2021/03/06 09:31:04;;;;;;;4.53;3.60;;;8.40;66.80;;;-143.91;100.00;62816.50;4983139;27;100294;-63
2021/03/06 09:33:32;;;;;;;5.33;3.80;;;8.50;65.90;;;-143.91;100.00;62816.50;4982685;28;101578;-62
2021/03/06 09:36:05;;;;;;;6.37;4.70;;;8.30;65.90;;;-143.91;100.00;62816.50;4982768;27;101341;-61
2021/03/06 09:38:33;;;;;;;5.20;3.30;;;8.50;65.80;;;-143.91;100.00;62816.50;4982965;27;100363;-61
2021/03/06 09:41:00;;;;;;;5.10;2.87;;;8.70;64.60;;;-143.91;100.00;62816.50;4982201;28;100152;-62
2021/03/06 09:43:31;;;;;;;13.87;7.30;;;8.70;64.60;;;-143.91;100.00;62816.50;4983886;27;101669;-61
2021/03/06 09:45:59;;;;;;;6.83;3.70;;;8.80;64.20;;;-143.91;100.00;62816.50;4981873;28;101486;-62
2021/03/06 09:48:27;;;;;;;6.50;3.27;;;8.90;64.20;;;-143.91;100.00;62816.50;4982869;28;100077;-62
2021/03/06 09:50:57;;;;;;;4.83;3.03;;;8.90;64.50;;;-143.91;100.00;62816.50;4983479;27;100211;-62
2021/03/06 09:53:26;;;;;;;8.40;3.67;;;9.20;64.00;;;-143.91;100.00;62816.50;4984299;27;101821;-62
2021/03/06 09:56:09;;;;;;;5.80;3.20;;;9.30;62.60;;;-143.91;100.00;62816.50;5002421;27;100535;-63
2021/03/06 09:58:35;;;;;;;7.13;3.33;;;9.40;62.60;;;-143.91;100.00;62816.50;5002488;27;100220;-62
2021/03/06 10:01:18;;;;;;;5.03;3.40;;;10.20;62.20;;;-143.91;100.00;62816.50;5001179;27;100205;-62
2021/03/06 10:03:46;;;;;;;3.77;3.30;;;9.80;61.30;;;-143.91;100.00;62816.50;5001263;27;101104;-63